createdAt,value
2018-03-20T00:00:53.076Z,46.90
2018-03-20T00:03:19.056Z,46.90
2018-03-20T00:05:45.021Z,47.50
2018-03-20T00:08:10.977Z,47.60
2018-03-20T00:10:37.021Z,47.90
2018-03-20T00:13:03.017Z,48.30
2018-03-20T00:15:29.012Z,47.50
2018-03-20T00:17:55.760Z,46.30
2018-03-20T00:20:21.724Z,46.90
2018-03-20T00:22:47.693Z,46.20
2018-03-20T00:25:13.704Z,46.20
2018-03-20T00:27:39.668Z,45.80
2018-03-20T00:30:05.738Z,45.70
2018-03-20T00:32:31.891Z,45.60
2018-03-20T00:34:58.626Z,45.40
2018-03-20T00:37:25.374Z,44.90
2018-03-20T00:39:51.359Z,45.00
2018-03-20T00:42:17.347Z,45.00
2018-03-20T00:44:43.302Z,44.60
2018-03-20T00:47:10.020Z,43.70
2018-03-20T00:49:35.980Z,43.70
2018-03-20T00:52:01.976Z,43.70
2018-03-20T00:54:27.998Z,43.90
2018-03-20T00:56:54.086Z,44.20
2018-03-20T00:59:20.052Z,44.20
2018-03-20T01:01:46.098Z,43.50
2018-03-20T01:04:12.081Z,44.40
2018-03-20T01:06:38.044Z,44.40
2018-03-20T01:09:04.840Z,43.90
2018-03-20T01:11:30.858Z,43.90
2018-03-20T01:13:56.909Z,43.90
2018-03-20T01:16:23.603Z,44.90
2018-03-20T01:18:49.573Z,44.90
2018-03-20T01:21:15.535Z,44.90
2018-03-20T01:23:41.512Z,45.00
2018-03-20T01:26:07.477Z,45.40
2018-03-20T01:28:33.470Z,46.10
2018-03-20T01:30:59.530Z,46.00
2018-03-20T01:33:26.235Z,47.20
2018-03-20T01:35:52.744Z,47.20
2018-03-20T01:38:19.482Z,47.40
2018-03-20T01:40:46.206Z,47.70
2018-03-20T01:43:12.163Z,47.70
2018-03-20T01:45:38.155Z,48.30
2018-03-20T01:48:04.159Z,48.50
2018-03-20T01:50:30.200Z,49.50
2018-03-20T01:53:08.641Z,49.10
2018-03-20T01:55:34.636Z,48.70
2018-03-20T01:58:00.649Z,49.30
2018-03-20T02:00:27.445Z,47.90
2018-03-20T02:02:54.173Z,47.30
2018-03-20T02:05:20.144Z,47.20
2018-03-20T02:07:46.144Z,47.10
2018-03-20T02:10:12.155Z,45.90
2018-03-20T02:12:38.121Z,46.20
2018-03-20T02:15:04.201Z,45.90
2018-03-20T02:17:30.342Z,46.00
2018-03-20T02:19:56.326Z,46.50
2018-03-20T02:22:22.336Z,46.10
2018-03-20T02:24:48.315Z,45.70
2018-03-20T02:27:15.030Z,46.00
2018-03-20T02:29:41.051Z,46.00
2018-03-20T02:32:07.020Z,46.40
2018-03-20T02:34:33.028Z,46.20
2018-03-20T02:36:59.159Z,46.50
2018-03-20T02:39:25.137Z,46.70
2018-03-20T02:41:51.109Z,46.90
2018-03-20T02:44:17.137Z,47.00
2018-03-20T02:46:43.118Z,47.30
2018-03-20T02:49:09.091Z,48.20
2018-03-20T02:51:35.828Z,48.70
2018-03-20T02:54:01.824Z,48.70
2018-03-20T02:56:27.860Z,49.10
2018-03-20T02:58:53.937Z,49.50
2018-03-20T03:01:19.938Z,49.60
2018-03-20T03:03:45.910Z,49.60
2018-03-20T03:06:12.097Z,49.90
2018-03-20T03:08:38.060Z,50.00
2018-03-20T03:11:04.058Z,50.50
2018-03-20T03:13:30.106Z,51.30
2018-03-20T03:15:56.080Z,51.20
2018-03-20T03:18:22.051Z,51.30
2018-03-20T03:20:48.806Z,51.50
2018-03-20T03:23:15.518Z,51.70
2018-03-20T03:25:41.477Z,51.70
2018-03-20T03:28:07.556Z,52.10
2018-03-20T03:30:33.560Z,52.20
2018-03-20T03:33:00.301Z,52.30
2018-03-20T03:35:26.328Z,52.30
2018-03-20T03:37:52.323Z,52.00
2018-03-20T03:40:18.300Z,52.30
2018-03-20T03:42:44.292Z,52.50
2018-03-20T03:45:10.276Z,52.50
2018-03-20T03:47:36.235Z,52.80
2018-03-20T03:50:03.171Z,52.90
2018-03-20T03:52:29.198Z,52.90
2018-03-20T03:54:55.158Z,52.90
2018-03-20T03:57:21.890Z,53.30
2018-03-20T03:59:47.865Z,53.30
2018-03-20T04:02:13.824Z,53.80
2018-03-20T04:04:39.832Z,54.30
2018-03-20T04:07:05.885Z,54.70
2018-03-20T04:09:31.982Z,54.80
2018-03-20T04:11:58.049Z,55.00
2018-03-20T04:14:24.005Z,55.10
2018-03-20T04:16:49.988Z,53.90
2018-03-20T04:19:16.324Z,53.90
2018-03-20T04:21:42.292Z,53.90
2018-03-20T04:24:08.278Z,54.20
2018-03-20T04:26:34.340Z,54.30
2018-03-20T04:29:00.324Z,54.10
2018-03-20T04:31:26.334Z,55.00
2018-03-20T04:33:52.741Z,54.10
2018-03-20T04:36:18.717Z,54.10
2018-03-20T04:38:44.711Z,54.50
2018-03-20T04:41:11.645Z,55.00
2018-03-20T04:43:37.634Z,55.00
2018-03-20T04:46:04.393Z,55.50
2018-03-20T04:48:30.529Z,55.40
2018-03-20T04:50:57.321Z,56.20
2018-03-20T04:53:23.287Z,56.20
2018-03-20T04:55:49.274Z,56.20
2018-03-20T04:58:15.261Z,56.10
2018-03-20T05:00:41.237Z,55.80
2018-03-20T05:03:07.230Z,55.60
2018-03-20T05:05:33.268Z,55.80
2018-03-20T05:07:59.312Z,55.70
2018-03-20T05:10:25.290Z,55.80
2018-03-20T05:12:51.257Z,55.70
2018-03-20T05:15:17.244Z,55.80
2018-03-20T05:17:43.257Z,56.30
2018-03-20T05:20:15.369Z,56.80
2018-03-20T05:22:47.515Z,56.80
2018-03-20T05:25:14.238Z,58.00
2018-03-20T05:27:40.228Z,57.50
2018-03-20T05:30:07.083Z,57.20
2018-03-20T05:32:33.854Z,57.40
2018-03-20T05:34:59.872Z,57.40
2018-03-20T05:37:26.226Z,57.30
2018-03-20T05:39:52.213Z,57.60
2018-03-20T05:42:18.209Z,57.70
2018-03-20T05:44:44.214Z,57.20
2018-03-20T05:50:18.077Z,56.60
2018-03-20T05:52:44.820Z,51.80
2018-03-20T05:55:11.541Z,49.50
2018-03-20T05:57:37.593Z,49.40
2018-03-20T06:00:03.620Z,47.80
2018-03-20T06:02:29.676Z,45.60
2018-03-20T06:04:56.447Z,44.30
2018-03-20T06:07:22.445Z,44.30
2018-03-20T06:09:48.395Z,46.30
2018-03-20T06:12:14.365Z,46.80
2018-03-20T06:14:40.325Z,47.40
2018-03-20T06:17:06.316Z,47.60
2018-03-20T06:19:33.105Z,48.10
2018-03-20T06:21:59.120Z,48.10
2018-03-20T06:24:25.838Z,47.90
2018-03-20T06:26:51.830Z,47.20
2018-03-20T06:29:17.811Z,46.00
2018-03-20T06:31:43.769Z,46.20
2018-03-20T06:34:10.490Z,46.00
2018-03-20T06:36:36.456Z,46.00
2018-03-20T06:39:03.226Z,44.50
2018-03-20T06:41:29.281Z,45.00
2018-03-20T06:43:55.249Z,45.00
2018-03-20T06:46:21.213Z,44.50
2018-03-20T06:48:47.957Z,43.40
2018-03-20T06:51:14.672Z,43.30
2018-03-20T06:53:40.628Z,43.20
2018-03-20T06:56:06.635Z,42.80
2018-03-20T06:58:32.625Z,42.50
2018-03-20T07:00:59.359Z,40.60
2018-03-20T07:03:25.341Z,40.60
2018-03-20T07:05:51.309Z,39.50
2018-03-20T07:08:17.295Z,38.90
2018-03-20T07:10:44.030Z,38.20
2018-03-20T07:13:10.739Z,38.50
2018-03-20T07:15:36.709Z,38.30
2018-03-20T07:18:02.775Z,37.70
2018-03-20T07:20:29.537Z,37.50
2018-03-20T07:22:55.508Z,37.50
2018-03-20T07:25:21.670Z,37.60
2018-03-20T07:27:47.658Z,37.80
2018-03-20T07:30:13.624Z,37.70
2018-03-20T07:32:39.669Z,38.30
2018-03-20T07:35:05.652Z,37.00
2018-03-20T07:37:31.663Z,35.60
2018-03-20T07:39:58.452Z,40.80
2018-03-20T07:42:25.145Z,42.30
2018-03-20T07:44:51.114Z,42.20
2018-03-20T07:47:18.245Z,39.60
2018-03-20T07:49:44.216Z,39.50
2018-03-20T07:52:10.177Z,41.50
2018-03-20T07:54:36.278Z,39.30
2018-03-20T07:57:02.356Z,39.10
2018-03-20T07:59:28.383Z,38.10
2018-03-20T08:01:54.401Z,38.20
2018-03-20T08:04:20.374Z,38.10
2018-03-20T08:06:46.351Z,38.30
2018-03-20T08:09:12.321Z,39.10
2018-03-20T08:11:38.281Z,39.20
2018-03-20T08:14:04.250Z,39.50
2018-03-20T08:16:30.328Z,39.30
2018-03-20T08:18:56.304Z,39.50
2018-03-20T08:21:22.268Z,38.50
2018-03-20T08:23:48.253Z,39.00
2018-03-20T08:26:14.217Z,39.30
2018-03-20T08:28:40.205Z,39.50
2018-03-20T08:31:06.200Z,40.40
2018-03-20T08:33:33.654Z,41.80
2018-03-20T08:35:59.659Z,41.80
2018-03-20T08:38:25.654Z,41.90
2018-03-20T08:40:52.372Z,42.00
2018-03-20T08:43:18.324Z,42.00
2018-03-20T08:45:44.349Z,42.30
2018-03-20T08:48:10.309Z,41.70
2018-03-20T08:50:36.285Z,41.50
2018-03-20T08:53:02.323Z,42.50
2018-03-20T08:55:28.312Z,43.40
2018-03-20T08:57:55.049Z,43.60
2018-03-20T09:00:21.022Z,43.60
2018-03-20T09:02:47.766Z,42.70
2018-03-20T09:05:14.477Z,43.40
2018-03-20T09:07:40.537Z,43.40
2018-03-20T09:10:06.522Z,44.20
2018-03-20T09:12:32.550Z,45.10
2018-03-20T09:14:58.554Z,45.00
2018-03-20T09:17:25.258Z,45.90
2018-03-20T09:19:51.230Z,45.80
2018-03-20T09:22:17.225Z,45.40
2018-03-20T09:24:43.189Z,45.20
2018-03-20T09:27:09.148Z,44.90
2018-03-20T09:29:35.907Z,44.60
2018-03-20T09:32:02.662Z,45.70
2018-03-20T09:34:29.401Z,47.90
2018-03-20T09:36:56.150Z,48.40
2018-03-20T09:39:22.117Z,48.90
2018-03-20T09:41:48.107Z,48.60
2018-03-20T09:44:14.096Z,49.30
2018-03-20T09:46:40.062Z,49.40
2018-03-20T09:49:06.084Z,48.90
2018-03-20T09:51:32.060Z,48.70
2018-03-20T09:53:58.817Z,46.90
2018-03-20T09:56:24.799Z,46.90
2018-03-20T09:58:50.827Z,46.20
2018-03-20T10:01:16.777Z,46.60
2018-03-20T10:03:42.753Z,48.30
2018-03-20T10:06:08.820Z,49.80
2018-03-20T10:08:34.797Z,49.70
2018-03-20T10:11:00.857Z,49.20
2018-03-20T10:13:27.665Z,49.30
2018-03-20T10:15:53.630Z,49.30
2018-03-20T10:18:19.593Z,50.40
2018-03-20T10:20:45.700Z,51.10
2018-03-20T10:23:11.662Z,53.00
2018-03-20T10:25:37.670Z,53.80
2018-03-20T10:28:03.693Z,53.40
2018-03-20T10:30:29.712Z,52.80
2018-03-20T10:32:55.681Z,51.80
2018-03-20T10:35:21.765Z,51.50
2018-03-20T10:37:47.682Z,52.80
2018-03-20T10:40:13.860Z,51.50
2018-03-20T10:42:39.836Z,52.50
2018-03-20T10:45:05.812Z,52.60
2018-03-20T10:47:32.611Z,53.50
2018-03-20T10:49:59.298Z,53.40
2018-03-20T10:52:25.247Z,53.30
2018-03-20T10:54:51.958Z,50.60
2018-03-20T10:57:17.933Z,50.60
2018-03-20T10:59:43.896Z,51.30
2018-03-20T11:02:16.120Z,51.50
2018-03-20T11:04:42.145Z,51.10
2018-03-20T11:07:08.112Z,52.30
2018-03-20T11:09:34.109Z,51.00
2018-03-20T11:12:00.160Z,49.70
2018-03-20T11:14:26.122Z,49.30
2018-03-20T11:16:52.147Z,50.50
2018-03-20T11:19:18.122Z,51.60
2018-03-20T11:21:44.273Z,52.00
2018-03-20T11:24:10.245Z,52.30
2018-03-20T11:26:36.261Z,52.50
2018-03-20T11:29:02.285Z,54.50
2018-03-20T11:31:28.284Z,54.10
2018-03-20T11:33:55.009Z,53.70
2018-03-20T11:36:20.968Z,53.70
2018-03-20T11:38:46.940Z,53.60
2018-03-20T11:41:12.965Z,54.20
2018-03-20T11:43:38.942Z,55.20
2018-03-20T11:46:04.949Z,53.90
2018-03-20T11:48:31.009Z,55.30
2018-03-20T11:50:57.019Z,56.00
2018-03-20T11:53:23.013Z,56.40
2018-03-20T11:55:48.996Z,55.80
2018-03-20T11:58:14.961Z,55.80
2018-03-20T12:00:40.941Z,54.50
2018-03-20T12:03:07.659Z,54.80
2018-03-20T12:05:33.626Z,54.80
2018-03-20T12:08:12.949Z,55.00
2018-03-20T12:10:38.910Z,54.90
2018-03-20T12:13:05.677Z,54.50
2018-03-20T12:15:31.660Z,54.50
2018-03-20T12:17:57.694Z,55.10
2018-03-20T12:20:23.652Z,54.70
2018-03-20T12:22:49.681Z,55.50
2018-03-20T12:25:15.693Z,55.40
2018-03-20T12:27:41.645Z,56.20
2018-03-20T12:30:07.617Z,55.10
2018-03-20T12:32:34.348Z,56.90
2018-03-20T12:35:01.167Z,58.30
2018-03-20T12:37:27.228Z,57.80
2018-03-20T12:39:53.189Z,58.90
2018-03-20T12:42:19.912Z,60.00
2018-03-20T12:44:46.174Z,60.00
2018-03-20T12:47:12.909Z,61.30
2018-03-20T12:49:42.438Z,61.20
2018-03-20T12:52:08.648Z,62.40
2018-03-20T12:54:34.699Z,62.10
2018-03-20T12:57:01.489Z,61.70
2018-03-20T12:59:27.872Z,62.20
2018-03-20T13:01:53.891Z,62.40
2018-03-20T13:04:19.919Z,62.20
2018-03-20T13:06:46.096Z,62.90
2018-03-20T13:09:12.864Z,64.00
2018-03-20T13:11:38.949Z,63.90
2018-03-20T13:14:04.977Z,64.40
2018-03-20T13:16:30.961Z,64.60
2018-03-20T13:18:56.931Z,64.20
2018-03-20T13:21:22.904Z,63.60
2018-03-20T13:23:49.089Z,64.30
2018-03-20T13:26:15.825Z,66.40
2018-03-20T13:28:42.569Z,66.50
2018-03-20T13:31:10.047Z,65.80
2018-03-20T13:33:36.022Z,65.90
2018-03-20T13:36:02.041Z,66.30
2018-03-20T13:38:28.005Z,66.40
2018-03-20T13:40:53.972Z,65.80
2018-03-20T13:43:20.224Z,65.60
2018-03-20T13:45:46.190Z,63.70
2018-03-20T13:48:12.244Z,63.20
2018-03-20T13:50:38.200Z,63.20
2018-03-20T13:53:04.207Z,63.20
2018-03-20T13:55:30.180Z,62.30
2018-03-20T13:57:56.189Z,62.40
2018-03-20T14:00:22.153Z,61.70
2018-03-20T14:02:48.121Z,61.30
2018-03-20T14:05:15.062Z,60.60
2018-03-20T14:07:41.029Z,60.60
2018-03-20T14:10:07.756Z,61.20
2018-03-20T14:12:33.792Z,61.10
2018-03-20T14:14:59.765Z,60.90
2018-03-20T14:17:25.738Z,60.10
2018-03-20T14:19:52.315Z,58.70
2018-03-20T14:22:19.773Z,56.90
2018-03-20T14:24:45.781Z,56.90
2018-03-20T14:27:11.770Z,56.10
2018-03-20T14:29:38.534Z,55.40
2018-03-20T14:32:05.321Z,54.60
2018-03-20T14:34:31.498Z,54.60
2018-03-20T14:36:57.462Z,54.50
2018-03-20T14:39:24.174Z,54.70
2018-03-20T14:41:50.168Z,54.70
2018-03-20T14:44:16.152Z,54.50
2018-03-20T14:46:42.129Z,53.50
2018-03-20T14:49:09.163Z,52.90
2018-03-20T14:51:35.151Z,52.90
2018-03-20T14:54:01.122Z,53.40
2018-03-20T14:56:27.399Z,54.30
2018-03-20T14:58:53.378Z,54.50
2018-03-20T15:01:19.336Z,54.90
2018-03-20T15:03:45.360Z,54.40
2018-03-20T15:06:11.408Z,54.00
2018-03-20T15:08:37.487Z,53.90
2018-03-20T15:11:03.593Z,54.10
2018-03-20T15:13:31.071Z,53.80
2018-03-20T15:15:57.053Z,53.80
2018-03-20T15:18:23.060Z,54.10
2018-03-20T15:20:49.071Z,53.80
2018-03-20T15:23:15.050Z,52.00
2018-03-20T15:25:41.072Z,51.70
2018-03-20T15:28:07.844Z,50.90
2018-03-20T15:30:33.844Z,50.80
2018-03-20T15:32:59.849Z,50.20
2018-03-20T15:35:25.944Z,50.70
2018-03-20T15:37:51.931Z,50.00
2018-03-20T15:40:18.712Z,50.20
2018-03-20T15:42:44.786Z,50.20
2018-03-20T15:45:10.837Z,50.50
2018-03-20T15:47:38.219Z,50.90
2018-03-20T15:50:04.311Z,50.80
2018-03-20T15:52:30.322Z,49.50
2018-03-20T15:54:56.383Z,49.10
2018-03-20T15:57:23.166Z,49.90
2018-03-20T15:59:49.200Z,49.90
2018-03-20T16:02:15.598Z,49.80
2018-03-20T16:04:41.671Z,48.80
2018-03-20T16:07:07.770Z,49.10
2018-03-20T16:09:33.920Z,48.90
2018-03-20T16:12:00.649Z,48.20
2018-03-20T16:14:26.613Z,48.20
2018-03-20T16:16:52.628Z,47.60
2018-03-20T16:19:18.666Z,47.10
2018-03-20T16:21:44.718Z,46.70
2018-03-20T16:24:10.959Z,45.50
2018-03-20T16:26:37.733Z,43.00
2018-03-20T16:29:03.728Z,43.00
2018-03-20T16:31:29.777Z,43.30
2018-03-20T16:33:56.502Z,41.70
2018-03-20T16:36:22.505Z,41.60
2018-03-20T16:38:48.564Z,40.80
2018-03-20T16:41:14.597Z,40.70
2018-03-20T16:43:40.599Z,39.30
2018-03-20T16:46:07.416Z,39.80
2018-03-20T16:48:33.390Z,39.80
2018-03-20T16:50:59.369Z,40.00
2018-03-20T16:53:25.438Z,40.30
2018-03-20T16:55:51.392Z,39.40
2018-03-20T16:58:18.097Z,39.30
2018-03-20T17:00:44.086Z,39.30
2018-03-20T17:03:10.150Z,39.50
2018-03-20T17:05:36.174Z,38.80
2018-03-20T17:08:02.188Z,37.70
2018-03-20T17:10:28.929Z,37.40
2018-03-20T17:12:54.894Z,37.40
2018-03-20T17:15:20.938Z,37.70
2018-03-20T17:17:46.926Z,38.30
2018-03-20T17:20:12.899Z,38.20
2018-03-20T17:22:39.808Z,38.20
2018-03-20T17:25:05.789Z,38.20
2018-03-20T17:27:32.499Z,38.40
2018-03-20T17:29:58.537Z,38.40
2018-03-20T17:32:24.497Z,38.90
2018-03-20T17:34:50.479Z,39.40
2018-03-20T17:37:16.482Z,40.20
2018-03-20T17:39:43.214Z,40.40
2018-03-20T17:42:09.208Z,40.40
2018-03-20T17:44:35.490Z,40.50
2018-03-20T17:47:01.475Z,40.60
2018-03-20T17:49:27.465Z,40.30
2018-03-20T17:51:53.481Z,41.10
2018-03-20T17:54:19.451Z,41.90
2018-03-20T17:56:46.169Z,42.20
2018-03-20T17:59:12.150Z,42.20
2018-03-20T18:01:38.289Z,42.80
2018-03-20T18:04:04.298Z,43.30
2018-03-20T18:06:30.337Z,43.90
2018-03-20T18:08:56.292Z,43.70
2018-03-20T18:11:22.283Z,43.30
2018-03-20T18:13:48.315Z,43.30
2018-03-20T18:16:14.273Z,43.30
2018-03-20T18:18:40.253Z,43.10
2018-03-20T18:21:06.257Z,43.00
2018-03-20T18:23:33.012Z,44.20
2018-03-20T18:25:59.729Z,44.70
2018-03-20T18:28:25.732Z,44.70
2018-03-20T18:30:51.724Z,45.40
2018-03-20T18:33:17.735Z,45.40
2018-03-20T18:35:43.734Z,45.50
2018-03-20T18:38:09.709Z,45.70
2018-03-20T18:40:35.694Z,46.10
2018-03-20T18:43:01.910Z,46.10
2018-03-20T18:45:27.877Z,47.00
2018-03-20T18:47:53.840Z,48.20
2018-03-20T18:50:19.837Z,48.70
2018-03-20T18:52:45.882Z,49.00
2018-03-20T18:55:12.029Z,49.90
2018-03-20T18:57:38.083Z,50.70
2018-03-20T19:00:04.200Z,51.20
2018-03-20T19:02:30.249Z,52.00
2018-03-20T19:04:56.222Z,52.80
2018-03-20T19:07:22.176Z,53.00
2018-03-20T19:09:48.150Z,53.20
2018-03-20T19:12:14.208Z,53.60
2018-03-20T19:14:40.991Z,54.70
2018-03-20T19:17:07.702Z,55.20
2018-03-20T19:19:33.740Z,55.20
2018-03-20T19:21:59.699Z,56.00
2018-03-20T19:24:26.402Z,56.80
2018-03-20T19:26:52.368Z,56.80
2018-03-20T19:29:18.321Z,57.00
2018-03-20T19:31:45.035Z,57.90
2018-03-20T19:34:11.051Z,57.90
2018-03-20T19:36:37.104Z,57.50
2018-03-20T19:39:03.949Z,56.10
2018-03-20T19:41:29.949Z,56.10
2018-03-20T19:43:55.916Z,55.70
2018-03-20T19:46:21.881Z,56.00
2018-03-20T19:48:47.912Z,56.00
2018-03-20T19:51:13.875Z,56.40
2018-03-20T19:53:40.618Z,57.30
2018-03-20T19:56:06.693Z,57.30
2018-03-20T19:58:32.676Z,57.10
2018-03-20T20:00:58.633Z,57.90
2018-03-20T20:03:25.366Z,58.20
2018-03-20T20:05:58.472Z,58.20
2018-03-20T20:08:24.465Z,57.10
2018-03-20T20:10:50.437Z,56.70
2018-03-20T20:13:16.410Z,56.40
2018-03-20T20:15:42.469Z,56.00
2018-03-20T20:18:08.468Z,55.30
2018-03-20T20:20:35.235Z,54.70
2018-03-20T20:23:01.632Z,54.70
2018-03-20T20:25:27.602Z,54.00
2018-03-20T20:27:54.314Z,53.80
2018-03-20T20:30:20.361Z,53.80
2018-03-20T20:32:46.366Z,53.50
2018-03-20T20:35:12.385Z,54.00
2018-03-20T20:37:38.433Z,54.40
2018-03-20T20:40:04.549Z,54.50
2018-03-20T20:42:30.535Z,54.60
2018-03-20T20:44:56.536Z,55.00
2018-03-20T20:47:22.500Z,54.30
2018-03-20T20:49:48.460Z,54.50
2018-03-20T20:52:16.008Z,54.10
2018-03-20T20:54:42.021Z,54.10
2018-03-20T20:57:08.037Z,53.30
2018-03-20T20:59:34.213Z,53.10
2018-03-20T21:02:00.178Z,52.80
2018-03-20T21:04:26.141Z,53.10
2018-03-20T21:06:53.073Z,51.80
2018-03-20T21:09:19.051Z,51.80
2018-03-20T21:11:45.021Z,51.20
2018-03-20T21:14:11.045Z,51.50
2018-03-20T21:16:37.081Z,51.30
2018-03-20T21:19:03.049Z,51.00
2018-03-20T21:21:29.062Z,50.90
2018-03-20T21:23:55.012Z,51.00
2018-03-20T21:26:20.987Z,51.10
2018-03-20T21:28:47.004Z,53.10
2018-03-20T21:31:20.786Z,57.60
2018-03-20T21:33:46.753Z,57.60
2018-03-20T21:36:14.213Z,55.30
2018-03-20T21:38:40.254Z,55.30
2018-03-20T21:41:07.044Z,56.90
2018-03-20T21:43:33.010Z,56.90
2018-03-20T21:45:58.981Z,57.60
2018-03-20T21:48:25.117Z,58.20
2018-03-20T21:50:51.169Z,59.00
2018-03-20T21:53:17.869Z,60.90
2018-03-20T21:55:44.253Z,60.80
2018-03-20T21:58:10.322Z,61.00
2018-03-20T22:00:36.387Z,61.90
2018-03-20T22:03:02.433Z,61.80
2018-03-20T22:05:28.401Z,61.20
2018-03-20T22:07:54.365Z,61.20
2018-03-20T22:10:20.661Z,61.10
2018-03-20T22:12:46.741Z,61.60
2018-03-20T22:15:13.454Z,61.50
2018-03-20T22:17:39.510Z,61.50
2018-03-20T22:20:05.512Z,60.40
2018-03-20T22:22:31.491Z,60.90
2018-03-20T22:24:58.263Z,60.80
2018-03-20T22:27:25.256Z,59.80
2018-03-20T22:29:51.220Z,59.70
2018-03-20T22:32:17.209Z,59.10
2018-03-20T22:34:43.174Z,58.70
2018-03-20T22:37:09.194Z,58.60
2018-03-20T22:39:35.263Z,57.90
2018-03-20T22:42:01.254Z,57.40
2018-03-20T22:44:27.221Z,57.50
2018-03-20T22:46:53.232Z,57.30
2018-03-20T22:49:19.184Z,57.60
2018-03-20T22:51:45.145Z,57.30
2018-03-20T22:54:11.196Z,57.70
2018-03-20T22:56:37.967Z,56.80
2018-03-20T22:59:03.966Z,56.80
2018-03-20T23:01:30.009Z,55.80
2018-03-20T23:03:55.992Z,56.40
2018-03-20T23:06:21.950Z,55.50
2018-03-20T23:08:47.928Z,56.40
2018-03-20T23:11:14.630Z,55.90
2018-03-20T23:13:40.874Z,55.90
2018-03-20T23:16:06.905Z,56.10
2018-03-20T23:18:32.882Z,56.40
2018-03-20T23:20:58.848Z,55.80
2018-03-20T23:23:24.844Z,55.90
2018-03-20T23:25:50.813Z,55.70
2018-03-20T23:28:17.525Z,55.90
2018-03-20T23:30:43.541Z,55.90
2018-03-20T23:33:09.582Z,55.60
2018-03-20T23:35:35.610Z,55.50
2018-03-20T23:38:08.476Z,56.10
2018-03-20T23:40:35.200Z,54.50
2018-03-20T23:43:01.914Z,54.60
2018-03-20T23:45:27.902Z,54.60
2018-03-20T23:47:54.603Z,54.50
2018-03-20T23:50:20.581Z,54.40
2018-03-20T23:52:47.349Z,54.30
2018-03-20T23:55:14.066Z,53.60
2018-03-20T23:57:40.079Z,53.60
